QFA540 YSSY-YBBN
Flight info
| Callsign | QFA540 |
|---|---|
| Flight time | N/A |
| Altitude | 41000 |
| Route | OLSEM Y193 BANDA H252 BN |
| Aircraft | A333/H-SDE3GHIJ2J3J5M1RVWXY/LB2D1 |
Departure
| Time | 2026-05-05 09:06 |
|---|---|
| Airport | Sydney Kingsford Smith International Airport (YSSY) |
Arrival
| Time | N/A |
|---|---|
| Airport | Brisbane International Airport (YBBN) |
| Time | Latitude | Longitude | Altitude | Speed | Heading |
|---|---|---|---|---|---|
| 2026-05-05 08:38 | -33.93722 | 151.17870 | 34 ft | 0 kts | 80° |
| 2026-05-05 08:54 | -33.93723 | 151.17862 | 33 ft | 3 kts | 80° |
| 2026-05-05 08:54 | -33.93725 | 151.17847 | 32 ft | 3 kts | 80° |
| 2026-05-05 08:55 | -33.93726 | 151.17815 | 31 ft | 3 kts | 125° |
| 2026-05-05 08:55 | -33.93717 | 151.17803 | 31 ft | 3 kts | 156° |
| 2026-05-05 08:55 | -33.93709 | 151.17799 | 32 ft | 0 kts | 171° |
| 2026-05-05 08:57 | -33.93718 | 151.17797 | 30 ft | 2 kts | 187° |
| 2026-05-05 08:58 | -33.93772 | 151.17784 | 28 ft | 15 kts | 191° |
| 2026-05-05 08:58 | -33.93892 | 151.17778 | 27 ft | 16 kts | 171° |
| 2026-05-05 08:58 | -33.93982 | 151.17801 | 27 ft | 14 kts | 168° |
| 2026-05-05 08:58 | -33.94085 | 151.17827 | 27 ft | 17 kts | 168° |
| 2026-05-05 08:59 | -33.94202 | 151.17859 | 28 ft | 18 kts | 166° |
| 2026-05-05 08:59 | -33.94329 | 151.17889 | 28 ft | 19 kts | 170° |
| 2026-05-05 08:59 | -33.94455 | 151.17910 | 28 ft | 18 kts | 182° |
| 2026-05-05 08:59 | -33.94565 | 151.17897 | 28 ft | 15 kts | 176° |
| 2026-05-05 09:00 | -33.94667 | 151.17920 | 27 ft | 16 kts | 168° |
| 2026-05-05 09:00 | -33.94787 | 151.17952 | 29 ft | 19 kts | 167° |
| 2026-05-05 09:00 | -33.94920 | 151.17988 | 29 ft | 19 kts | 167° |
| 2026-05-05 09:00 | -33.95042 | 151.18020 | 29 ft | 17 kts | 167° |
| 2026-05-05 09:01 | -33.95094 | 151.18089 | 29 ft | 10 kts | 101° |
| 2026-05-05 09:01 | -33.95088 | 151.18177 | 28 ft | 12 kts | 80° |
| 2026-05-05 09:01 | -33.95071 | 151.18283 | 28 ft | 14 kts | 78° |
| 2026-05-05 09:01 | -33.95050 | 151.18402 | 30 ft | 15 kts | 77° |
| 2026-05-05 09:02 | -33.95026 | 151.18526 | 30 ft | 13 kts | 77° |
| 2026-05-05 09:02 | -33.95006 | 151.18645 | 29 ft | 16 kts | 79° |
| 2026-05-05 09:02 | -33.94999 | 151.18689 | 28 ft | 0 kts | 78° |
| 2026-05-05 09:02 | -33.94998 | 151.18698 | 28 ft | 0 kts | 78° |
| 2026-05-05 09:04 | -33.94995 | 151.18715 | 28 ft | 6 kts | 78° |
| 2026-05-05 09:04 | -33.94993 | 151.18790 | 28 ft | 12 kts | 101° |
| 2026-05-05 09:05 | -33.95048 | 151.18853 | 27 ft | 13 kts | 161° |
| 2026-05-05 09:05 | -33.95280 | 151.18917 | 26 ft | 66 kts | 168° |
| 2026-05-05 09:05 | -33.95935 | 151.19087 | 33 ft | 123 kts | 167° |
| 2026-05-05 09:05 | -33.96895 | 151.19315 | 302 ft | 151 kts | 171° |
| 2026-05-05 09:06 | -33.97936 | 151.19558 | 970 ft | 152 kts | 169° |
| 2026-05-05 09:06 | -33.98888 | 151.20094 | 1428 ft | 163 kts | 138° |
| 2026-05-05 09:06 | -33.99499 | 151.21333 | 1735 ft | 182 kts | 119° |
| 2026-05-05 09:06 | -34.00080 | 151.22776 | 2068 ft | 199 kts | 122° |
| 2026-05-05 09:07 | -34.00795 | 151.24293 | 2392 ft | 217 kts | 125° |
| 2026-05-05 09:07 | -34.01774 | 151.25697 | 2743 ft | 228 kts | 141° |
| 2026-05-05 09:07 | -34.03038 | 151.26956 | 3060 ft | 245 kts | 139° |
| 2026-05-05 09:07 | -34.04104 | 151.28618 | 3717 ft | 256 kts | 119° |
| 2026-05-05 09:08 | -34.04532 | 151.30726 | 4447 ft | 266 kts | 91° |
| 2026-05-05 09:08 | -34.04023 | 151.32704 | 5068 ft | 232 kts | 58° |